CST,Max TemperatureF,Mean TemperatureF,Min TemperatureF,Max Dew PointF,MeanDew PointF,Min DewpointF,Max Humidity, Mean Humidity, Min Humidity, Max Sea Level PressureIn, Mean Sea Level PressureIn, Min Sea Level PressureIn, Max VisibilityMiles, Mean VisibilityMiles, Min VisibilityMiles, Max Wind SpeedMPH, Mean Wind SpeedMPH, Max Gust SpeedMPH,PrecipitationIn, CloudCover, Events, WindDirDegrees
2013-1-1,20,13,5,11,5,0,80,68,56,30.39,30.32,30.25,10,10,10,13,5,15,0.00,2,,349
2013-1-2,29,16,3,21,14,0,87,75,63,30.28,30.21,30.16,10,10,6,14,6,16,0.00,4,,205
2013-1-3,33,23,12,24,18,9,92,76,59,30.47,30.39,30.29,10,8,2,21,5,23,0.00,3,,299
2013-1-4,38,24,10,25,17,9,92,76,59,30.42,30.34,30.25,10,9,5,20,5,23,0.00,0,,197
2013-1-5,43,30,16,31,26,18,91,77,62,30.23,30.16,30.06,10,10,8,20,10,26,T,3,,223
2013-1-6,37,28,19,22,19,15,84,68,52,30.42,30.33,30.22,10,10,9,23,8,30,0.00,2,,257
2013-1-7,47,36,24,27,23,19,75,59,42,30.27,30.14,30.04,10,10,10,23,10,31,0.00,0,,188
2013-1-8,52,43,32,32,29,26,82,66,47,30.21,30.03,29.94,10,10,10,17,10,24,0.00,0,,202
2013-1-9,53,38,23,38,29,21,96,73,50,30.47,30.38,30.23,10,9,4,9,3,12,0.00,0,,36
2013-1-10,43,41,38,43,37,22,100,72,43,30.35,29.92,29.71,10,4,0,18,7,24,0.29,7,Fog-Rain,128
2013-1-11,57,49,40,46,42,24,100,74,47,29.76,29.66,29.53,10,5,0,29,15,36,0.01,4,Fog,174
2013-1-12,37,28,19,31,16,9,81,64,51,30.16,30.03,29.81,10,10,10,22,16,31,0.00,5,,319
2013-1-13,25,18,11,9,6,3,76,61,46,30.40,30.27,30.15,10,10,10,18,9,23,0.00,3,,316
2013-1-14,31,19,7,13,8,2,83,61,39,30.57,30.48,30.42,10,10,10,8,1,12,0.00,0,,20
2013-1-15,34,23,12,14,11,8,92,64,36,30.44,30.33,30.19,10,10,10,7,2,9,0.00,1,,200
2013-1-16,50,33,16,32,22,10,78,62,46,30.23,30.10,30.02,10,10,10,14,7,17,0.00,2,,236
2013-1-17,46,34,22,29,25,21,92,71,49,30.51,30.43,30.26,10,10,9,13,4,15,0.00,0,,3
2013-1-18,59,44,28,31,28,24,85,59,33,30.39,30.16,29.99,10,10,10,32,14,43,0.00,0,,203
2013-1-19,63,48,33,31,28,20,75,51,27,30.30,30.05,29.95,10,10,10,24,11,29,0.00,0,,274
2013-1-20,34,26,17,19,9,6,74,55,36,30.47,30.40,30.32,10,10,10,20,10,25,0.00,2,,9
2013-1-21,17,14,11,10,3,-5,84,62,40,30.51,30.46,30.42,10,10,10,18,8,21,T,6,Snow,344
2013-1-22,28,20,11,8,3,-1,58,47,35,30.48,30.39,30.32,10,10,9,10,4,21,T,2,,107
2013-1-23,43,28,13,20,12,3,76,56,36,30.51,30.32,30.23,10,10,9,18,8,22,0.00,0,,25
2013-1-24,25,16,7,7,1,-3,69,54,39,30.59,30.43,30.24,10,10,10,18,11,22,0.00,3,,95
2013-1-25,48,31,13,21,14,7,80,56,31,30.27,30.23,30.18,10,10,10,12,3,14,0.00,1,,284
2013-1-26,47,34,20,23,21,16,84,61,38,30.35,30.24,30.11,10,10,10,15,7,20,0.00,0,,126
2013-1-27,55,46,37,51,42,24,100,75,50,30.08,29.86,29.74,10,6,1,18,9,21,0.13,8,Rain,170
2013-1-28,73,57,41,59,47,39,96,73,49,29.88,29.78,29.61,10,6,2,25,9,31,0.00,6,,76
2013-1-29,68,51,33,59,40,30,92,85,78,29.68,29.59,29.48,10,6,2,23,13,30,0.14,7,Rain-Thunderstorm,339
2013-1-30,34,26,17,30,21,11,92,76,60,29.99,29.73,29.55,10,3,0,36,18,44,0.07,7,Fog-Snow,331
2013-1-31,21,12,2,14,4,-5,80,69,58,30.54,30.27,30.00,10,10,9,30,12,38,0.00,5,,315